Time;durP1;ratioP1;P1;durP2;ratioP2;P2;SDS_P1;SDS_P2;PMS_P1;PMS_P2;Temp;Humidity;BMP_temperature;BMP_pressure;BME280_temperature;BME280_humidity;BME280_pressure;Samples;Min_cycle;Max_cycle;Signal;HPM_P1;HPM_P2
2022/08/26 00:01:19;;;;;;;14.25;8.90;;;18.60;99.90;;;;;;5045722;28;19917;-65
2022/08/26 00:03:45;;;;;;;13.23;9.40;;;18.60;99.90;;;;;;5042357;28;20072;-66
2022/08/26 00:06:11;;;;;;;14.25;9.23;;;18.50;99.90;;;;;;5041052;28;20652;-65
2022/08/26 00:08:37;;;;;;;14.30;9.88;;;18.60;99.90;;;;;;5040804;28;20067;-65
2022/08/26 00:11:03;;;;;;;15.05;8.95;;;18.50;99.90;;;;;;5043011;28;20029;-66
2022/08/26 00:13:29;;;;;;;;;;;18.50;99.90;;;;;;5042656;28;20090;-65
2022/08/26 00:15:55;;;;;;;13.25;8.93;;;18.40;99.90;;;;;;5042799;28;20473;-65
2022/08/26 00:18:20;;;;;;;;;;;18.40;99.90;;;;;;5033941;28;20037;-65
2022/08/26 00:20:46;;;;;;;13.05;8.65;;;18.40;99.90;;;;;;5030249;28;20293;-65
2022/08/26 00:23:11;;;;;;;;;;;18.30;99.90;;;;;;5033947;28;20729;-65
2022/08/26 00:25:38;;;;;;;16.52;10.20;;;18.30;99.90;;;;;;5029731;28;19920;-65
2022/08/26 00:28:05;;;;;;;14.00;9.10;;;18.30;99.90;;;;;;5029106;28;20099;-65
2022/08/26 00:30:33;;;;;;;13.13;9.35;;;18.30;99.90;;;;;;5029311;28;20046;-64
2022/08/26 00:33:00;;;;;;;12.20;9.10;;;18.30;99.90;;;;;;5029234;28;20120;-65
2022/08/26 00:35:26;;;;;;;16.77;9.40;;;18.30;99.90;;;;;;5029273;28;20421;-64
2022/08/26 00:37:53;;;;;;;17.20;9.07;;;18.30;99.90;;;;;;5029439;28;20033;-64
2022/08/26 00:40:47;;;;;;;12.38;9.23;;;18.30;99.90;;;;;;5028984;28;20040;-63
2022/08/26 00:43:14;;;;;;;14.95;9.70;;;18.30;99.90;;;;;;5020320;28;20045;-63
2022/08/26 00:46:20;;;;;;;13.57;9.40;;;18.30;99.90;;;;;;5029589;28;20042;-64
2022/08/26 00:48:48;;;;;;;14.65;9.10;;;18.20;99.90;;;;;;4966694;28;20042;-64
2022/08/26 00:51:20;;;;;;;18.83;10.18;;;18.20;99.90;;;;;;4967645;28;20043;-63
2022/08/26 00:53:53;;;;;;;19.73;9.98;;;18.20;99.90;;;;;;5004249;28;20072;-63
2022/08/26 00:56:34;;;;;;;17.40;9.10;;;18.20;99.90;;;;;;5028611;28;20052;-64
2022/08/26 00:59:05;;;;;;;25.23;10.13;;;18.20;99.90;;;;;;5028881;28;20037;-63
2022/08/26 01:01:31;;;;;;;13.98;9.75;;;18.20;99.90;;;;;;5047328;28;20044;-64
2022/08/26 01:03:56;;;;;;;;;;;18.20;99.90;;;;;;5060021;28;20424;-64
2022/08/26 01:06:23;;;;;;;13.32;8.75;;;18.20;99.90;;;;;;5060067;28;20008;-64
2022/08/26 01:08:50;;;;;;;11.98;8.88;;;18.20;99.90;;;;;;5057902;28;20056;-64
2022/08/26 01:11:16;;;;;;;14.20;8.68;;;18.30;99.90;;;;;;5057143;28;20039;-63
2022/08/26 01:13:42;;;;;;;;;;;18.20;99.90;;;;;;5053512;28;20389;-63
2022/08/26 01:16:11;;;;;;;12.57;9.00;;;18.20;99.90;;;;;;5062072;28;19960;-63
2022/08/26 01:18:39;;;;;;;18.65;9.60;;;18.20;99.90;;;;;;5053588;28;20072;-65
2022/08/26 01:21:14;;;;;;;18.05;9.27;;;18.20;99.90;;;;;;5054009;28;20569;-63
2022/08/26 01:23:47;;;;;;;14.20;8.75;;;18.20;99.90;;;;;;5053769;28;20424;-63
2022/08/26 01:26:26;;;;;;;11.45;7.80;;;18.20;99.90;;;;;;5056732;28;20068;-64
2022/08/26 01:28:55;;;;;;;25.27;9.98;;;18.20;99.90;;;;;;5051805;28;20052;-63
2022/08/26 01:31:23;;;;;;;14.70;10.05;;;18.10;99.90;;;;;;5063716;28;20040;-64
2022/08/26 01:34:00;;;;;;;13.80;9.55;;;18.10;99.90;;;;;;5052017;28;20669;-62
2022/08/26 01:36:26;;;;;;;12.57;9.55;;;18.10;99.90;;;;;;5064572;28;20048;-63
2022/08/26 01:38:52;;;;;;;;;;;18.00;99.90;;;;;;5053490;28;20048;-63
2022/08/26 01:41:19;;;;;;;16.90;10.00;;;18.00;99.90;;;;;;5065079;28;19916;-64
2022/08/26 01:43:48;;;;;;;19.13;9.80;;;18.00;99.90;;;;;;5052203;28;20651;-63
2022/08/26 01:46:15;;;;;;;18.50;9.65;;;18.00;99.90;;;;;;5061601;28;20040;-64
2022/08/26 01:48:43;;;;;;;17.50;9.57;;;17.90;99.90;;;;;;5053050;28;20050;-63
2022/08/26 01:51:10;;;;;;;14.95;10.35;;;17.90;99.90;;;;;;5058085;28;20048;-64
2022/08/26 01:53:37;;;;;;;11.98;8.65;;;17.80;99.90;;;;;;5045393;28;20387;-63
2022/08/26 01:56:04;;;;;;;19.95;9.85;;;17.80;99.90;;;;;;5047479;28;20041;-63
2022/08/26 01:58:36;;;;;;;16.77;9.77;;;17.80;99.90;;;;;;5055042;28;20068;-64
2022/08/26 02:01:04;;;;;;;18.25;9.45;;;17.90;99.90;;;;;;5059881;28;20064;-64
2022/08/26 02:03:30;;;;;;;18.00;9.77;;;17.80;99.90;;;;;;5049311;28;20037;-63
2022/08/26 02:05:59;;;;;;;;;;;17.80;99.90;;;;;;5062647;28;20530;-63
2022/08/26 02:08:30;;;;;;;13.82;9.85;;;17.80;99.90;;;;;;5052998;28;19964;-64
2022/08/26 02:10:56;;;;;;;16.30;9.80;;;17.80;99.90;;;;;;5056685;28;20080;-63
2022/08/26 02:13:24;;;;;;;;;;;17.70;99.90;;;;;;5043216;28;20557;-64
2022/08/26 02:15:50;;;;;;;15.10;10.48;;;17.80;99.90;;;;;;5062198;28;19916;-64
2022/08/26 02:18:15;;;;;;;;;;;17.80;99.90;;;;;;5043665;28;20045;-63
2022/08/26 02:20:41;;;;;;;16.60;9.88;;;17.70;99.90;;;;;;5061754;28;19927;-62
2022/08/26 02:23:07;;;;;;;22.98;9.45;;;17.70;99.90;;;;;;5044053;28;20044;-63
2022/08/26 02:25:48;;;;;;;;;;;17.70;99.90;;;;;;5046981;28;20041;-64
2022/08/26 02:28:15;;;;;;;14.50;9.32;;;17.80;99.90;;;;;;5050245;28;20427;-64
2022/08/26 02:30:41;;;;;;;20.95;9.35;;;17.80;99.90;;;;;;5061485;28;20162;-63
2022/08/26 02:33:07;;;;;;;;;;;17.80;99.90;;;;;;5045015;28;20048;-63
2022/08/26 02:35:34;;;;;;;12.55;9.02;;;17.80;99.90;;;;;;5060821;28;19912;-63
2022/08/26 02:38:01;;;;;;;15.98;9.85;;;17.80;99.90;;;;;;5047056;28;20040;-62
2022/08/26 02:40:31;;;;;;;16.10;9.55;;;17.80;99.90;;;;;;5059906;28;20527;-64
2022/08/26 02:42:57;;;;;;;19.23;9.80;;;17.80;99.90;;;;;;5047022;28;20833;-64
2022/08/26 02:45:22;;;;;;;;;;;17.80;99.90;;;;;;5058542;28;20037;-63
2022/08/26 02:47:50;;;;;;;14.45;10.10;;;17.80;99.90;;;;;;5059969;28;20015;-63
2022/08/26 02:50:15;;;;;;;21.38;10.27;;;17.80;99.90;;;;;;5058814;28;20790;-64
2022/08/26 02:52:41;;;;;;;;;;;17.80;99.90;;;;;;5050210;28;20108;-64
2022/08/26 02:55:07;;;;;;;18.60;10.18;;;17.80;99.90;;;;;;5047627;28;20012;-64
2022/08/26 02:57:33;;;;;;;14.32;9.77;;;17.80;99.90;;;;;;5047368;28;20048;-63
2022/08/26 02:59:59;;;;;;;;;;;17.80;99.90;;;;;;5058506;28;20146;-64
2022/08/26 03:02:26;;;;;;;14.57;9.57;;;17.80;99.90;;;;;;5054338;28;19917;-64
2022/08/26 03:04:52;;;;;;;14.52;9.32;;;17.80;99.90;;;;;;5056963;28;21256;-64
2022/08/26 03:07:18;;;;;;;;;;;17.80;99.90;;;;;;5055682;28;20033;-64
2022/08/26 03:09:44;;;;;;;12.20;9.60;;;17.80;99.90;;;;;;5050999;28;19962;-64
2022/08/26 03:12:10;;;;;;;;;;;17.80;99.90;;;;;;5057000;28;20275;-64
2022/08/26 03:14:37;;;;;;;15.50;9.83;;;17.80;99.90;;;;;;5054655;28;19917;-64
2022/08/26 03:17:03;;;;;;;18.00;9.95;;;17.80;99.90;;;;;;5056163;28;20098;-64
2022/08/26 03:19:30;;;;;;;;;;;17.80;99.90;;;;;;5056070;28;20036;-64
2022/08/26 03:21:57;;;;;;;22.05;10.32;;;17.80;99.90;;;;;;5053861;28;19946;-64
2022/08/26 03:24:22;;;;;;;15.32;9.82;;;17.80;99.90;;;;;;5047288;28;20049;-64
2022/08/26 03:26:48;;;;;;;;;;;17.80;99.90;;;;;;5047788;28;20501;-63
2022/08/26 03:32:00;;;;;;;16.52;9.68;;;17.90;99.90;;;;;;5055993;28;20045;-64
2022/08/26 03:34:26;;;;;;;19.23;10.13;;;17.90;99.90;;;;;;5054515;28;20555;-65
2022/08/26 03:36:52;;;;;;;19.42;10.05;;;17.90;99.90;;;;;;5056147;28;20053;-63
2022/08/26 03:39:18;;;;;;;;;;;17.90;99.90;;;;;;5057079;28;20142;-64
2022/08/26 03:41:44;;;;;;;14.50;9.32;;;17.90;99.90;;;;;;5056233;28;19916;-64
2022/08/26 03:44:10;;;;;;;14.77;10.07;;;17.90;99.90;;;;;;5056667;28;20071;-64
2022/08/26 03:46:37;;;;;;;13.80;8.93;;;17.90;99.90;;;;;;5059601;28;20059;-64
2022/08/26 03:49:04;;;;;;;13.13;9.30;;;17.90;99.90;;;;;;5048798;28;20036;-64
2022/08/26 03:51:31;;;;;;;16.02;10.60;;;17.90;99.90;;;;;;5057337;28;20048;-64
2022/08/26 03:53:59;;;;;;;14.13;8.90;;;17.90;99.90;;;;;;5049932;28;20041;-63
2022/08/26 03:56:26;;;;;;;21.65;11.02;;;17.90;99.90;;;;;;5049047;28;20033;-64
2022/08/26 03:58:52;;;;;;;15.95;10.25;;;17.90;99.90;;;;;;5053162;28;20060;-62
2022/08/26 04:01:18;;;;;;;19.48;10.82;;;17.90;99.90;;;;;;5061245;28;20060;-62
2022/08/26 04:03:59;;;;;;;;;;;17.90;99.90;;;;;;5056873;28;20045;-65
2022/08/26 04:06:29;;;;;;;23.77;9.60;;;17.80;99.90;;;;;;5061558;28;19921;-64
2022/08/26 04:08:56;;;;;;;17.08;9.70;;;17.90;99.90;;;;;;5059232;28;20086;-65
2022/08/26 04:11:27;;;;;;;14.85;9.93;;;17.80;99.90;;;;;;5052252;28;20041;-64
2022/08/26 04:13:53;;;;;;;11.25;9.15;;;17.80;99.90;;;;;;5057842;28;20432;-65
2022/08/26 04:16:18;;;;;;;;;;;17.80;99.90;;;;;;5061445;28;20037;-64
2022/08/26 04:18:44;;;;;;;15.38;9.20;;;17.80;99.90;;;;;;5056405;28;19927;-66
2022/08/26 04:21:10;;;;;;;17.63;9.70;;;17.80;99.90;;;;;;5061558;28;20039;-62
2022/08/26 04:23:37;;;;;;;14.95;9.48;;;17.80;99.90;;;;;;5051400;28;20041;-64
2022/08/26 04:26:02;;;;;;;11.93;9.10;;;17.70;99.90;;;;;;5048777;28;20045;-62
2022/08/26 04:28:28;;;;;;;;;;;17.80;99.90;;;;;;5056965;28;20051;-64
2022/08/26 04:30:54;;;;;;;13.60;9.05;;;17.80;99.90;;;;;;5058383;28;20296;-61
2022/08/26 04:33:20;;;;;;;;;;;17.80;99.90;;;;;;5054304;28;20033;-61
2022/08/26 04:35:46;;;;;;;21.20;9.05;;;17.70;99.90;;;;;;5064503;28;19921;-61
2022/08/26 04:38:12;;;;;;;;;;;17.70;99.90;;;;;;5057348;28;20789;-64
2022/08/26 04:40:43;;;;;;;12.40;8.80;;;17.70;99.90;;;;;;5064243;28;19969;-64
2022/08/26 04:43:09;;;;;;;17.88;10.00;;;17.80;99.90;;;;;;5053616;28;20040;-64
2022/08/26 04:45:35;;;;;;;;;;;17.80;99.90;;;;;;5058326;28;20163;-65
2022/08/26 04:48:01;;;;;;;15.88;8.40;;;17.80;99.90;;;;;;5064486;28;19920;-62
2022/08/26 04:50:27;;;;;;;;;;;17.80;99.90;;;;;;5062911;28;20048;-63
2022/08/26 04:52:53;;;;;;;15.20;8.80;;;17.90;99.90;;;;;;5051739;28;19978;-64
2022/08/26 04:55:19;;;;;;;18.23;8.27;;;18.00;99.90;;;;;;5048179;28;20069;-62
2022/08/26 04:57:45;;;;;;;;;;;18.00;99.90;;;;;;5055068;28;20068;-60
2022/08/26 05:00:12;;;;;;;10.57;8.15;;;18.10;99.90;;;;;;5054308;28;19938;-61
2022/08/26 05:02:38;;;;;;;10.70;8.13;;;18.20;99.90;;;;;;5057140;28;20110;-62
2022/08/26 05:05:06;;;;;;;16.92;9.60;;;18.30;99.90;;;;;;5052730;28;20029;-63
2022/08/26 05:07:33;;;;;;;14.75;9.30;;;18.20;99.90;;;;;;5050512;28;20037;-62
2022/08/26 05:09:59;;;;;;;12.35;8.38;;;18.20;99.90;;;;;;5055728;28;21276;-62
2022/08/26 05:12:26;;;;;;;15.80;8.95;;;18.30;99.90;;;;;;5061724;28;20067;-63
2022/08/26 05:14:52;;;;;;;12.57;9.13;;;18.30;99.90;;;;;;5051715;28;20041;-64
2022/08/26 05:17:17;;;;;;;;;;;18.40;99.90;;;;;;5059598;28;20102;-62
2022/08/26 05:19:43;;;;;;;12.70;8.77;;;18.40;99.90;;;;;;5055263;28;19959;-64
2022/08/26 05:22:08;;;;;;;;;;;18.50;99.90;;;;;;5057448;28;20382;-63
2022/08/26 05:24:35;;;;;;;18.98;9.00;;;18.50;99.90;;;;;;5053932;28;20042;-63
2022/08/26 05:27:01;;;;;;;12.23;8.32;;;18.50;99.90;;;;;;5050736;28;20052;-64
2022/08/26 05:29:27;;;;;;;13.30;9.00;;;18.40;99.90;;;;;;5051411;28;20063;-64
2022/08/26 05:31:53;;;;;;;;;;;18.40;99.90;;;;;;5063614;28;20504;-63
2022/08/26 05:34:19;;;;;;;16.52;9.35;;;18.60;99.90;;;;;;5054838;28;19916;-62
2022/08/26 05:36:45;;;;;;;12.18;8.55;;;18.50;99.90;;;;;;5057436;28;20053;-62
2022/08/26 05:39:11;;;;;;;16.88;8.65;;;18.60;99.90;;;;;;5059220;28;20044;-64
2022/08/26 05:41:38;;;;;;;;;;;18.70;99.90;;;;;;5058100;28;20063;-63
2022/08/26 05:44:07;;;;;;;12.70;8.52;;;18.90;99.90;;;;;;5057999;28;19967;-63
2022/08/26 05:46:34;;;;;;;13.50;8.25;;;19.40;99.90;;;;;;5062158;28;20044;-65
2022/08/26 05:49:00;;;;;;;14.88;8.70;;;19.60;99.90;;;;;;5058728;28;20056;-64
2022/08/26 05:51:25;;;;;;;16.40;9.30;;;19.50;99.90;;;;;;5060127;28;21027;-64
2022/08/26 05:53:51;;;;;;;;;;;19.40;99.90;;;;;;5049894;28;20040;-65
2022/08/26 05:56:18;;;;;;;12.77;8.38;;;19.40;99.90;;;;;;5052104;28;19921;-65
2022/08/26 05:58:44;;;;;;;17.38;8.27;;;19.40;99.90;;;;;;5052201;28;20115;-63
2022/08/26 06:01:14;;;;;;;;;;;19.20;99.90;;;;;;5059375;28;20036;-64
2022/08/26 06:03:43;;;;;;;13.20;7.55;;;19.30;99.90;;;;;;5052195;28;19920;-65
2022/08/26 06:06:18;;;;;;;13.98;8.10;;;19.30;99.90;;;;;;5059724;28;20388;-59
2022/08/26 06:08:44;;;;;;;17.40;9.00;;;19.30;99.90;;;;;;5053259;28;20075;-63
2022/08/26 06:11:12;;;;;;;15.07;8.32;;;19.30;99.90;;;;;;5054041;28;20736;-62
2022/08/26 06:13:38;;;;;;;15.00;8.95;;;19.30;99.90;;;;;;5050426;28;20033;-62
2022/08/26 06:16:07;;;;;;;14.57;9.20;;;19.30;99.90;;;;;;5055232;28;20063;-62
2022/08/26 06:18:37;;;;;;;10.95;8.60;;;19.40;99.90;;;;;;5048484;28;20045;-63
2022/08/26 06:21:25;;;;;;;20.15;9.73;;;19.60;99.90;;;;;;5051595;28;20086;-64
2022/08/26 06:26:45;;;;;;;14.45;9.13;;;20.10;99.90;;;;;;5003337;28;20543;-63
2022/08/26 06:29:10;;;;;;;16.27;8.43;;;20.50;99.90;;;;;;5057579;28;20076;-63
2022/08/26 06:31:36;;;;;;;;;;;20.60;99.90;;;;;;5057147;28;20071;-63
2022/08/26 06:34:03;;;;;;;12.27;8.05;;;20.50;99.90;;;;;;5050230;28;20035;-64
2022/08/26 06:36:30;;;;;;;15.55;7.75;;;20.60;99.90;;;;;;5056068;28;20053;-63
2022/08/26 06:39:00;;;;;;;13.82;8.07;;;20.70;99.90;;;;;;5055538;28;20048;-62
2022/08/26 06:41:27;;;;;;;15.57;8.02;;;20.90;99.90;;;;;;5055099;28;20041;-63
2022/08/26 06:43:53;;;;;;;15.80;7.70;;;20.90;99.90;;;;;;5054633;28;20045;-64
2022/08/26 06:46:20;;;;;;;21.98;9.35;;;20.90;99.90;;;;;;5064404;28;20044;-64
2022/08/26 06:48:46;;;;;;;14.90;8.82;;;20.80;99.90;;;;;;5047456;28;20496;-63
2022/08/26 06:51:19;;;;;;;16.95;9.15;;;20.80;99.90;;;;;;5064606;28;20036;-63
2022/08/26 06:53:47;;;;;;;13.07;8.55;;;20.70;99.90;;;;;;5049043;28;20099;-62
2022/08/26 06:56:18;;;;;;;16.05;7.57;;;20.70;99.90;;;;;;5045454;28;20511;-66
2022/08/26 06:58:44;;;;;;;12.73;8.05;;;20.80;99.90;;;;;;5052660;28;20044;-61
2022/08/26 07:01:28;;;;;;;11.13;7.25;;;20.80;99.90;;;;;;5057112;28;20030;-62
2022/08/26 07:03:56;;;;;;;17.05;8.32;;;20.90;99.90;;;;;;5055550;28;20151;-64
2022/08/26 07:06:24;;;;;;;14.77;8.65;;;21.00;99.90;;;;;;5060272;28;20590;-65
2022/08/26 07:08:52;;;;;;;17.25;8.57;;;21.10;99.90;;;;;;5051597;28;20124;-64
2022/08/26 07:11:18;;;;;;;13.70;7.68;;;21.20;99.90;;;;;;5052060;28;20044;-61
2022/08/26 07:13:45;;;;;;;15.80;8.65;;;21.20;99.90;;;;;;5048029;28;20051;-63
2022/08/26 07:16:16;;;;;;;15.68;8.40;;;21.40;99.90;;;;;;5058496;28;20610;-62
2022/08/26 07:18:43;;;;;;;13.65;8.43;;;21.50;99.90;;;;;;5048732;28;20045;-64
2022/08/26 07:21:12;;;;;;;17.55;9.00;;;21.60;99.90;;;;;;5051822;28;20056;-64
2022/08/26 07:23:37;;;;;;;17.38;8.63;;;21.70;99.90;;;;;;5040990;28;20116;-63
2022/08/26 07:26:16;;;;;;;13.63;8.15;;;21.90;99.90;;;;;;5059652;28;20127;-63
2022/08/26 07:28:44;;;;;;;23.92;8.23;;;22.10;99.90;;;;;;5042782;28;20044;-65
2022/08/26 07:31:12;;;;;;;17.88;8.93;;;22.30;99.90;;;;;;5079574;28;20497;-62
2022/08/26 07:33:39;;;;;;;15.13;7.78;;;22.50;99.90;;;;;;5054997;28;20404;-63
2022/08/26 07:36:06;;;;;;;14.93;7.22;;;22.70;99.00;;;;;;5052461;28;20124;-64
2022/08/26 07:38:33;;;;;;;14.85;7.43;;;23.00;98.00;;;;;;5052273;28;20045;-64
2022/08/26 07:40:59;;;;;;;15.02;7.43;;;23.30;98.20;;;;;;5065473;28;20055;-62
2022/08/26 07:43:24;;;;;;;9.95;6.28;;;23.50;96.90;;;;;;5062404;28;20048;-63
2022/08/26 07:45:50;;;;;;;13.60;6.57;;;23.70;95.50;;;;;;5063401;28;20048;-62
2022/08/26 07:48:16;;;;;;;16.17;7.43;;;24.00;95.20;;;;;;5042877;28;20048;-63
2022/08/26 07:50:42;;;;;;;12.48;7.45;;;24.20;94.20;;;;;;5063935;28;20461;-63
2022/08/26 07:53:08;;;;;;;10.00;6.45;;;24.40;94.30;;;;;;5047648;28;20041;-64
2022/08/26 07:55:34;;;;;;;8.82;6.07;;;24.50;94.10;;;;;;5047866;28;20374;-63
2022/08/26 07:58:01;;;;;;;14.60;6.10;;;24.60;93.60;;;;;;5050523;28;20127;-63
2022/08/26 08:00:26;;;;;;;13.48;6.53;;;24.60;93.00;;;;;;5051778;28;20556;-63
2022/08/26 08:02:52;;;;;;;13.32;6.28;;;24.50;93.50;;;;;;5049800;28;20090;-64
2022/08/26 08:05:20;;;;;;;10.43;7.43;;;24.40;93.40;;;;;;5059202;28;20094;-64
2022/08/26 08:07:46;;;;;;;14.75;6.40;;;24.60;93.40;;;;;;5048521;28;20139;-65
2022/08/26 08:10:16;;;;;;;9.77;6.03;;;25.00;93.80;;;;;;5050128;28;20112;-64
2022/08/26 08:12:43;;;;;;;14.60;6.13;;;25.60;92.40;;;;;;5052358;28;20068;-65
2022/08/26 08:15:12;;;;;;;9.13;5.30;;;26.40;90.10;;;;;;5024557;28;20036;-67
2022/08/26 08:17:37;;;;;;;7.25;5.22;;;26.60;87.00;;;;;;5054692;28;20048;-63
2022/08/26 08:20:04;;;;;;;9.05;5.05;;;27.30;87.50;;;;;;5059535;28;20044;-63
2022/08/26 08:22:31;;;;;;;6.95;5.07;;;27.80;83.80;;;;;;5056215;28;20107;-62
2022/08/26 08:24:56;;;;;;;13.05;4.50;;;28.40;80.30;;;;;;5055530;28;20080;-63
2022/08/26 08:27:22;;;;;;;5.95;4.85;;;28.80;79.30;;;;;;5053434;28;20129;-63
2022/08/26 08:29:48;;;;;;;5.88;4.53;;;28.80;80.10;;;;;;5050032;28;20203;-67
2022/08/26 08:32:14;;;;;;;9.18;4.78;;;28.90;77.70;;;;;;5048561;28;20028;-67
2022/08/26 08:34:40;;;;;;;5.47;4.85;;;29.20;77.50;;;;;;5057736;28;20033;-67
2022/08/26 08:37:06;;;;;;;5.97;5.38;;;29.50;75.70;;;;;;5060731;28;20059;-67
2022/08/26 08:39:32;;;;;;;7.47;5.38;;;29.50;77.00;;;;;;5059443;28;20045;-63
2022/08/26 08:42:37;;;;;;;10.10;5.22;;;29.60;77.30;;;;;;5059335;28;20091;-66
2022/08/26 08:45:08;;;;;;;7.93;6.28;;;29.70;77.20;;;;;;5058694;28;20043;-66
2022/08/26 08:47:41;;;;;;;11.43;5.95;;;29.20;78.40;;;;;;5053917;28;20942;-66
2022/08/26 08:50:16;;;;;;;11.38;6.20;;;28.50;79.50;;;;;;5049982;28;20451;-67
2022/08/26 08:52:45;;;;;;;10.90;6.50;;;27.90;82.50;;;;;;5057594;28;20051;-66
2022/08/26 08:55:14;;;;;;;8.73;5.40;;;27.50;81.90;;;;;;5048549;28;20047;-66
2022/08/26 08:57:53;;;;;;;8.90;5.70;;;27.20;83.30;;;;;;5056455;28;20159;-66
2022/08/26 09:00:21;;;;;;;9.73;6.68;;;26.90;83.10;;;;;;5046240;28;20068;-67
2022/08/26 09:02:59;;;;;;;12.80;6.25;;;26.70;84.40;;;;;;5057313;28;20040;-65
2022/08/26 09:05:30;;;;;;;14.85;6.78;;;26.50;85.50;;;;;;5051481;28;20108;-65
2022/08/26 09:08:02;;;;;;;11.07;6.50;;;26.50;85.70;;;;;;5058000;28;20079;-65
2022/08/26 09:10:49;;;;;;;12.77;7.05;;;26.50;85.90;;;;;;5058261;28;20054;-65
2022/08/26 09:13:17;;;;;;;9.82;6.10;;;26.50;85.50;;;;;;5057144;28;20068;-65
2022/08/26 09:16:14;;;;;;;9.32;6.35;;;26.60;85.10;;;;;;5056887;28;20033;-65
2022/08/26 09:19:00;;;;;;;9.45;6.18;;;26.50;84.10;;;;;;5057793;28;20029;-65
2022/08/26 09:21:26;;;;;;;6.80;5.63;;;26.30;84.60;;;;;;5056312;28;20072;-66
2022/08/26 09:23:54;;;;;;;6.60;5.63;;;26.00;85.80;;;;;;5056479;28;20043;-65
2022/08/26 09:26:40;;;;;;;11.38;6.38;;;25.80;87.30;;;;;;5048054;28;20135;-65
2022/08/26 09:29:18;;;;;;;12.70;7.53;;;25.60;87.60;;;;;;5042252;28;20037;-64
2022/08/26 09:31:44;;;;;;;10.75;6.90;;;25.40;88.90;;;;;;5047492;28;20044;-65
2022/08/26 09:34:23;;;;;;;11.38;7.28;;;25.30;89.00;;;;;;5057476;28;20040;-64
2022/08/26 09:36:57;;;;;;;12.07;6.50;;;25.20;90.40;;;;;;5060540;28;20052;-65
2022/08/26 09:39:24;;;;;;;13.77;7.03;;;25.10;90.80;;;;;;5062002;28;20115;-64
2022/08/26 09:42:17;;;;;;;11.70;6.82;;;25.00;90.60;;;;;;5053861;28;20041;-64
2022/08/26 09:45:00;;;;;;;12.18;7.63;;;24.90;90.40;;;;;;5051674;28;20041;-65
2022/08/26 09:47:37;;;;;;;15.07;7.38;;;24.80;90.90;;;;;;5054355;28;20117;-66
2022/08/26 09:50:13;;;;;;;14.63;7.75;;;24.70;90.40;;;;;;5049235;28;20558;-65
2022/08/26 09:52:39;;;;;;;13.45;7.32;;;24.60;91.10;;;;;;5053461;28;20047;-66
2022/08/26 09:55:10;;;;;;;13.73;7.40;;;24.60;91.40;;;;;;5056670;28;20036;-66
2022/08/26 09:57:48;;;;;;;10.85;6.97;;;24.60;92.00;;;;;;5048266;28;20054;-66
2022/08/26 10:00:54;;;;;;;12.63;7.45;;;24.80;91.20;;;;;;5045992;28;20068;-67
2022/08/26 10:03:26;;;;;;;10.93;6.72;;;25.00;91.20;;;;;;5005470;28;20045;-65
2022/08/26 10:06:00;;;;;;;10.02;6.75;;;25.20;89.00;;;;;;5027091;28;20145;-66
2022/08/26 10:08:32;;;;;;;12.45;6.32;;;25.20;90.30;;;;;;5026260;28;20076;-65
2022/08/26 10:11:01;;;;;;;14.48;7.78;;;25.30;89.40;;;;;;5024660;28;20041;-67
2022/08/26 10:13:42;;;;;;;11.30;7.30;;;25.10;88.00;;;;;;5026795;28;20568;-66
2022/08/26 10:16:16;;;;;;;16.40;7.68;;;24.90;90.40;;;;;;5028100;28;20056;-65
2022/08/26 10:18:49;;;;;;;12.15;7.05;;;24.80;90.30;;;;;;5028486;28;20140;-66
2022/08/26 10:21:27;;;;;;;10.68;7.22;;;24.80;91.20;;;;;;5028463;28;20053;-63
2022/08/26 10:23:55;;;;;;;10.02;6.78;;;24.60;91.40;;;;;;5027189;28;20055;-64
2022/08/26 10:26:29;;;;;;;12.65;7.57;;;24.60;91.40;;;;;;5027510;28;20056;-65
2022/08/26 10:29:18;;;;;;;11.80;8.18;;;24.50;91.40;;;;;;5027745;28;20038;-64
2022/08/26 10:32:05;;;;;;;15.18;9.23;;;24.50;91.70;;;;;;5039626;28;20404;-64
2022/08/26 10:34:32;;;;;;;21.50;9.38;;;24.40;92.20;;;;;;5046082;28;20167;-65
2022/08/26 10:37:16;;;;;;;18.92;9.30;;;24.30;92.40;;;;;;5046522;28;20044;-64
2022/08/26 10:39:56;;;;;;;11.85;8.85;;;24.20;92.70;;;;;;5045985;28;20505;-66
2022/08/26 10:42:21;;;;;;;13.90;8.98;;;24.00;93.60;;;;;;5047577;28;20048;-65
2022/08/26 10:44:50;;;;;;;16.08;9.93;;;23.90;93.80;;;;;;5045255;28;20033;-65
2022/08/26 10:47:34;;;;;;;20.95;12.07;;;23.90;94.40;;;;;;5041724;28;20049;-66
2022/08/26 10:50:02;;;;;;;20.80;11.43;;;23.80;94.90;;;;;;5047006;28;20036;-66
2022/08/26 10:52:33;;;;;;;34.47;11.82;;;23.70;94.70;;;;;;5046838;28;20048;-66
2022/08/26 10:55:05;;;;;;;24.52;13.95;;;23.80;94.90;;;;;;5044810;28;20045;-65
2022/08/26 10:58:06;;;;;;;23.20;16.75;;;23.70;95.10;;;;;;5043382;28;20068;-66
2022/08/26 11:03:39;;;;;;;45.78;16.15;;;23.40;95.40;;;;;;5012807;28;20042;-64
2022/08/26 11:06:44;;;;;;;27.75;17.40;;;23.30;96.00;;;;;;5018507;28;20037;-65
2022/08/26 11:09:11;;;;;;;34.83;19.33;;;23.30;96.60;;;;;;4958297;28;20119;-64
2022/08/26 11:11:40;;;;;;;25.70;18.23;;;23.30;96.40;;;;;;4965141;28;20039;-65
2022/08/26 11:14:28;;;;;;;36.70;20.17;;;23.30;96.80;;;;;;4995234;28;20434;-65
2022/08/26 11:16:56;;;;;;;27.10;17.13;;;23.30;96.70;;;;;;5022149;28;20045;-65
2022/08/26 11:19:40;;;;;;;47.55;21.70;;;23.30;97.20;;;;;;5024581;28;20041;-66
2022/08/26 11:22:23;;;;;;;36.63;22.88;;;23.30;97.20;;;;;;5019990;28;20125;-65
2022/08/26 11:24:52;;;;;;;53.15;29.52;;;23.30;97.60;;;;;;5019363;28;20037;-67
2022/08/26 11:27:36;;;;;;;53.25;32.40;;;23.10;97.80;;;;;;5023056;28;20590;-67
2022/08/26 11:30:01;;;;;;;50.65;35.08;;;23.20;97.90;;;;;;5020182;28;20496;-63
2022/08/26 11:32:33;;;;;;;54.20;35.10;;;23.10;98.10;;;;;;5041834;28;20117;-66
2022/08/26 11:35:01;;;;;;;54.65;37.20;;;23.10;99.00;;;;;;5043072;28;20504;-64
2022/08/26 11:37:32;;;;;;;54.10;38.35;;;23.00;98.70;;;;;;5043790;28;20063;-67
2022/08/26 11:39:59;;;;;;;65.57;43.13;;;23.00;99.20;;;;;;5052588;28;20040;-66
2022/08/26 11:42:31;;;;;;;78.30;47.95;;;22.90;99.10;;;;;;5037167;28;20041;-65
2022/08/26 11:44:57;;;;;;;67.75;42.00;;;22.80;99.30;;;;;;5033066;28;20033;-66
2022/08/26 11:47:30;;;;;;;65.07;42.20;;;22.70;99.80;;;;;;5040041;28;20499;-66
2022/08/26 11:50:26;;;;;;;75.13;47.95;;;22.70;99.90;;;;;;5044354;28;20064;-66
2022/08/26 11:53:00;;;;;;;64.93;43.65;;;22.60;99.90;;;;;;5040111;28;20056;-66
2022/08/26 11:55:27;;;;;;;69.43;47.00;;;22.60;99.90;;;;;;5045807;28;20287;-65
2022/08/26 11:57:59;;;;;;;76.78;49.50;;;22.60;99.90;;;;;;5043270;28;20056;-63
2022/08/26 12:00:46;;;;;;;81.95;49.83;;;22.50;99.90;;;;;;5042282;28;20072;-64
2022/08/26 12:03:18;;;;;;;77.20;46.85;;;22.40;99.90;;;;;;5042042;28;20098;-67
2022/08/26 12:05:46;;;;;;;77.40;49.67;;;22.30;99.90;;;;;;5041796;28;20465;-66
2022/08/26 12:08:26;;;;;;;79.93;49.97;;;22.30;99.90;;;;;;5045677;28;20036;-66
2022/08/26 12:11:07;;;;;;;82.88;52.67;;;22.30;99.90;;;;;;5042140;28;20114;-66
2022/08/26 12:13:37;;;;;;;76.85;47.60;;;22.30;99.90;;;;;;5063154;28;20068;-66
2022/08/26 12:16:04;;;;;;;82.80;52.78;;;22.30;99.90;;;;;;5058231;28;20047;-67
2022/08/26 12:18:36;;;;;;;83.32;53.50;;;22.30;99.90;;;;;;5061760;28;20045;-67
2022/08/26 12:21:17;;;;;;;87.03;53.85;;;22.20;99.90;;;;;;5058442;28;20046;-66
2022/08/26 12:23:48;;;;;;;86.03;53.10;;;22.40;99.90;;;;;;5056179;28;20040;-66
2022/08/26 12:26:33;;;;;;;73.30;49.10;;;22.50;99.90;;;;;;5056585;28;20539;-66
2022/08/26 12:29:04;;;;;;;80.35;51.38;;;22.60;99.90;;;;;;5059324;28;20053;-67
2022/08/26 12:31:35;;;;;;;85.90;49.83;;;22.50;99.90;;;;;;5041621;28;20459;-67
2022/08/26 12:34:12;;;;;;;77.85;50.25;;;22.50;99.90;;;;;;5065701;28;20111;-66
2022/08/26 12:36:53;;;;;;;74.93;47.92;;;22.50;99.90;;;;;;5056073;28;20068;-66
2022/08/26 12:39:29;;;;;;;79.68;48.33;;;22.40;99.90;;;;;;5051330;28;20104;-66
2022/08/26 12:42:14;;;;;;;75.60;48.47;;;22.30;99.90;;;;;;5059792;28;20086;-67
2022/08/26 12:44:58;;;;;;;77.47;50.97;;;22.30;99.90;;;;;;5060766;28;20080;-66
2022/08/26 12:47:36;;;;;;;72.93;47.90;;;22.20;99.90;;;;;;5061251;28;20416;-67
2022/08/26 12:50:10;;;;;;;66.20;42.63;;;22.10;99.90;;;;;;5061684;28;20519;-66
2022/08/26 12:52:57;;;;;;;66.95;44.30;;;22.10;99.90;;;;;;5060966;28;20047;-66
2022/08/26 12:55:48;;;;;;;71.18;44.20;;;22.10;99.90;;;;;;5053708;28;20080;-66
2022/08/26 12:58:31;;;;;;;65.10;45.35;;;22.20;99.90;;;;;;5052286;28;20547;-66
2022/08/26 13:01:03;;;;;;;61.95;44.05;;;22.20;99.90;;;;;;5040919;28;20779;-66
2022/08/26 13:03:37;;;;;;;75.95;46.25;;;22.20;99.90;;;;;;5053059;28;20567;-66
2022/08/26 13:06:21;;;;;;;69.13;46.13;;;22.10;99.90;;;;;;5057027;28;20033;-66
2022/08/26 13:09:24;;;;;;;70.93;43.97;;;22.20;99.90;;;;;;5058416;28;20074;-66
2022/08/26 13:11:51;;;;;;;75.97;43.75;;;22.20;99.90;;;;;;5056504;28;20669;-67